sensor_id;sensor_type;location;lat;lon;timestamp;temperature;humidity
61912;DHT22;49973;52.084;5.412;2023-02-01T00:01:36;5.10;99.90
61912;DHT22;49973;52.084;5.412;2023-02-01T00:04:04;5.10;99.90
61912;DHT22;49973;52.084;5.412;2023-02-01T00:06:33;5.20;99.90
61912;DHT22;49973;52.084;5.412;2023-02-01T00:09:02;5.20;99.90
61912;DHT22;49973;52.084;5.412;2023-02-01T00:11:31;5.20;99.90
61912;DHT22;49973;52.084;5.412;2023-02-01T00:13:59;5.30;99.90
61912;DHT22;49973;52.084;5.412;2023-02-01T00:16:30;5.30;99.90
61912;DHT22;49973;52.084;5.412;2023-02-01T00:19:00;5.30;99.90
61912;DHT22;49973;52.084;5.412;2023-02-01T00:21:30;5.30;99.90
61912;DHT22;49973;52.084;5.412;2023-02-01T00:23:59;5.40;99.90
61912;DHT22;49973;52.084;5.412;2023-02-01T00:26:32;5.40;99.90
61912;DHT22;49973;52.084;5.412;2023-02-01T00:29:02;5.40;99.90
61912;DHT22;49973;52.084;5.412;2023-02-01T00:31:32;5.40;99.90
61912;DHT22;49973;52.084;5.412;2023-02-01T00:34:01;5.40;99.90
61912;DHT22;49973;52.084;5.412;2023-02-01T00:36:30;5.50;99.90
61912;DHT22;49973;52.084;5.412;2023-02-01T00:38:58;5.50;99.90
61912;DHT22;49973;52.084;5.412;2023-02-01T00:41:27;5.50;99.90
61912;DHT22;49973;52.084;5.412;2023-02-01T00:43:56;5.60;99.90
61912;DHT22;49973;52.084;5.412;2023-02-01T00:46:24;5.70;99.90
61912;DHT22;49973;52.084;5.412;2023-02-01T00:48:54;5.70;99.90
61912;DHT22;49973;52.084;5.412;2023-02-01T00:51:25;5.80;99.90
61912;DHT22;49973;52.084;5.412;2023-02-01T00:53:56;5.80;99.90
61912;DHT22;49973;52.084;5.412;2023-02-01T00:56:25;5.80;99.90
61912;DHT22;49973;52.084;5.412;2023-02-01T00:58:55;5.80;99.90
61912;DHT22;49973;52.084;5.412;2023-02-01T01:01:25;5.80;99.90
61912;DHT22;49973;52.084;5.412;2023-02-01T01:03:58;5.90;99.90
61912;DHT22;49973;52.084;5.412;2023-02-01T01:06:28;5.90;99.90
61912;DHT22;49973;52.084;5.412;2023-02-01T01:08:59;5.90;99.90
61912;DHT22;49973;52.084;5.412;2023-02-01T01:11:29;5.90;99.90
61912;DHT22;49973;52.084;5.412;2023-02-01T01:13:59;5.90;99.90
61912;DHT22;49973;52.084;5.412;2023-02-01T01:16:29;6.10;99.90
61912;DHT22;49973;52.084;5.412;2023-02-01T01:19:00;6.00;99.90
61912;DHT22;49973;52.084;5.412;2023-02-01T01:21:30;6.10;99.90
61912;DHT22;49973;52.084;5.412;2023-02-01T01:23:59;6.10;99.90
61912;DHT22;49973;52.084;5.412;2023-02-01T01:26:28;6.20;99.90
61912;DHT22;49973;52.084;5.412;2023-02-01T01:28:58;6.30;99.90
61912;DHT22;49973;52.084;5.412;2023-02-01T01:31:28;6.20;99.90
61912;DHT22;49973;52.084;5.412;2023-02-01T01:33:58;6.40;99.90
61912;DHT22;49973;52.084;5.412;2023-02-01T01:36:29;6.20;99.90
61912;DHT22;49973;52.084;5.412;2023-02-01T01:38:58;6.20;99.90
61912;DHT22;49973;52.084;5.412;2023-02-01T01:41:30;6.20;99.90
61912;DHT22;49973;52.084;5.412;2023-02-01T01:47:14;6.20;99.90
61912;DHT22;49973;52.084;5.412;2023-02-01T01:49:44;6.20;99.90
61912;DHT22;49973;52.084;5.412;2023-02-01T01:52:14;6.20;99.90
61912;DHT22;49973;52.084;5.412;2023-02-01T01:54:45;6.30;99.90
61912;DHT22;49973;52.084;5.412;2023-02-01T01:57:17;6.30;99.90
61912;DHT22;49973;52.084;5.412;2023-02-01T01:59:50;6.30;99.90
61912;DHT22;49973;52.084;5.412;2023-02-01T02:02:20;6.40;99.90
61912;DHT22;49973;52.084;5.412;2023-02-01T02:04:49;6.40;99.90
61912;DHT22;49973;52.084;5.412;2023-02-01T02:07:23;6.40;99.90
61912;DHT22;49973;52.084;5.412;2023-02-01T02:09:53;6.50;99.90
61912;DHT22;49973;52.084;5.412;2023-02-01T02:12:28;6.60;99.90
61912;DHT22;49973;52.084;5.412;2023-02-01T02:14:56;6.50;99.90
61912;DHT22;49973;52.084;5.412;2023-02-01T02:17:36;6.50;99.90
61912;DHT22;49973;52.084;5.412;2023-02-01T02:20:36;6.80;99.90
61912;DHT22;49973;52.084;5.412;2023-02-01T02:26:31;6.70;99.90
61912;DHT22;49973;52.084;5.412;2023-02-01T02:32:40;6.80;99.90
61912;DHT22;49973;52.084;5.412;2023-02-01T02:35:18;6.80;99.90
61912;DHT22;49973;52.084;5.412;2023-02-01T02:37:56;6.80;99.90
61912;DHT22;49973;52.084;5.412;2023-02-01T02:40:34;7.00;99.90
61912;DHT22;49973;52.084;5.412;2023-02-01T02:43:10;6.80;99.90
61912;DHT22;49973;52.084;5.412;2023-02-01T02:46:01;6.80;99.90
61912;DHT22;49973;52.084;5.412;2023-02-01T02:49:02;6.90;99.90
61912;DHT22;49973;52.084;5.412;2023-02-01T02:51:38;7.00;99.90
61912;DHT22;49973;52.084;5.412;2023-02-01T02:54:28;7.00;99.90
61912;DHT22;49973;52.084;5.412;2023-02-01T02:57:18;7.00;99.90
61912;DHT22;49973;52.084;5.412;2023-02-01T03:00:08;7.10;99.90
61912;DHT22;49973;52.084;5.412;2023-02-01T03:02:56;7.10;99.90
61912;DHT22;49973;52.084;5.412;2023-02-01T03:05:44;7.10;99.90
61912;DHT22;49973;52.084;5.412;2023-02-01T03:08:15;7.20;99.90
61912;DHT22;49973;52.084;5.412;2023-02-01T03:10:53;7.20;99.90
61912;DHT22;49973;52.084;5.412;2023-02-01T03:13:30;7.30;99.90
61912;DHT22;49973;52.084;5.412;2023-02-01T03:16:02;7.20;99.90
61912;DHT22;49973;52.084;5.412;2023-02-01T03:18:36;7.10;99.90
61912;DHT22;49973;52.084;5.412;2023-02-01T03:21:13;7.30;99.90
61912;DHT22;49973;52.084;5.412;2023-02-01T03:23:47;7.10;99.90
61912;DHT22;49973;52.084;5.412;2023-02-01T03:26:18;7.10;99.90
61912;DHT22;49973;52.084;5.412;2023-02-01T03:28:52;7.00;99.90
61912;DHT22;49973;52.084;5.412;2023-02-01T03:31:23;7.20;99.90
61912;DHT22;49973;52.084;5.412;2023-02-01T03:33:52;7.00;99.90
61912;DHT22;49973;52.084;5.412;2023-02-01T03:36:26;7.00;99.90
61912;DHT22;49973;52.084;5.412;2023-02-01T03:39:03;6.80;99.90
61912;DHT22;49973;52.084;5.412;2023-02-01T03:41:37;7.00;99.90
61912;DHT22;49973;52.084;5.412;2023-02-01T03:44:13;6.80;99.90
61912;DHT22;49973;52.084;5.412;2023-02-01T03:46:46;6.80;99.90
61912;DHT22;49973;52.084;5.412;2023-02-01T03:49:21;6.80;99.90
61912;DHT22;49973;52.084;5.412;2023-02-01T03:51:51;6.80;99.90
61912;DHT22;49973;52.084;5.412;2023-02-01T03:54:22;6.80;99.90
61912;DHT22;49973;52.084;5.412;2023-02-01T03:56:50;6.70;99.90
61912;DHT22;49973;52.084;5.412;2023-02-01T03:59:20;6.70;99.90
61912;DHT22;49973;52.084;5.412;2023-02-01T04:01:49;6.70;99.90
61912;DHT22;49973;52.084;5.412;2023-02-01T04:04:18;6.80;99.90
61912;DHT22;49973;52.084;5.412;2023-02-01T04:06:52;6.80;99.90
61912;DHT22;49973;52.084;5.412;2023-02-01T04:09:22;6.80;99.90
61912;DHT22;49973;52.084;5.412;2023-02-01T04:11:50;6.90;99.90
61912;DHT22;49973;52.084;5.412;2023-02-01T04:14:19;7.00;99.90
61912;DHT22;49973;52.084;5.412;2023-02-01T04:16:47;7.00;99.90
61912;DHT22;49973;52.084;5.412;2023-02-01T04:19:16;7.00;99.90
61912;DHT22;49973;52.084;5.412;2023-02-01T04:21:44;7.10;99.90
61912;DHT22;49973;52.084;5.412;2023-02-01T04:24:13;7.10;99.90
61912;DHT22;49973;52.084;5.412;2023-02-01T04:26:43;7.30;99.90
61912;DHT22;49973;52.084;5.412;2023-02-01T04:29:11;7.10;99.90
61912;DHT22;49973;52.084;5.412;2023-02-01T04:31:40;7.20;99.90
61912;DHT22;49973;52.084;5.412;2023-02-01T04:34:09;7.20;99.90
61912;DHT22;49973;52.084;5.412;2023-02-01T04:36:37;7.30;99.90
61912;DHT22;49973;52.084;5.412;2023-02-01T04:39:06;7.40;99.90
61912;DHT22;49973;52.084;5.412;2023-02-01T04:41:34;7.40;99.90
61912;DHT22;49973;52.084;5.412;2023-02-01T04:44:04;7.40;99.90
61912;DHT22;49973;52.084;5.412;2023-02-01T04:46:33;7.40;99.90
61912;DHT22;49973;52.084;5.412;2023-02-01T04:49:01;7.40;99.90
61912;DHT22;49973;52.084;5.412;2023-02-01T04:51:30;7.40;99.90
61912;DHT22;49973;52.084;5.412;2023-02-01T04:53:59;7.40;99.90
61912;DHT22;49973;52.084;5.412;2023-02-01T04:56:28;7.40;99.90
61912;DHT22;49973;52.084;5.412;2023-02-01T04:58:56;7.50;99.90
61912;DHT22;49973;52.084;5.412;2023-02-01T05:01:26;7.20;99.90
61912;DHT22;49973;52.084;5.412;2023-02-01T05:03:55;7.20;99.90
61912;DHT22;49973;52.084;5.412;2023-02-01T05:06:23;7.10;99.90
61912;DHT22;49973;52.084;5.412;2023-02-01T05:08:52;7.00;99.90
61912;DHT22;49973;52.084;5.412;2023-02-01T05:11:20;7.00;99.90
61912;DHT22;49973;52.084;5.412;2023-02-01T05:14:06;7.00;99.90
61912;DHT22;49973;52.084;5.412;2023-02-01T05:16:36;7.00;99.90
61912;DHT22;49973;52.084;5.412;2023-02-01T05:19:05;7.00;99.90
61912;DHT22;49973;52.084;5.412;2023-02-01T05:21:33;7.10;99.90
61912;DHT22;49973;52.084;5.412;2023-02-01T05:24:02;6.90;99.90
61912;DHT22;49973;52.084;5.412;2023-02-01T05:26:42;6.90;99.90
61912;DHT22;49973;52.084;5.412;2023-02-01T05:29:11;6.90;99.90
61912;DHT22;49973;52.084;5.412;2023-02-01T05:31:41;6.90;99.90
61912;DHT22;49973;52.084;5.412;2023-02-01T05:34:10;6.90;99.90
61912;DHT22;49973;52.084;5.412;2023-02-01T05:36:38;6.90;99.90
61912;DHT22;49973;52.084;5.412;2023-02-01T05:39:07;6.90;99.90
61912;DHT22;49973;52.084;5.412;2023-02-01T05:41:36;7.00;99.90
61912;DHT22;49973;52.084;5.412;2023-02-01T05:44:04;7.00;99.90
61912;DHT22;49973;52.084;5.412;2023-02-01T05:46:34;7.00;99.90
61912;DHT22;49973;52.084;5.412;2023-02-01T05:49:04;7.00;99.90
61912;DHT22;49973;52.084;5.412;2023-02-01T05:51:33;7.00;99.90
61912;DHT22;49973;52.084;5.412;2023-02-01T05:54:01;7.10;99.90
61912;DHT22;49973;52.084;5.412;2023-02-01T05:56:30;7.10;99.90
61912;DHT22;49973;52.084;5.412;2023-02-01T05:58:58;7.10;99.90
61912;DHT22;49973;52.084;5.412;2023-02-01T06:01:26;7.10;99.90
61912;DHT22;49973;52.084;5.412;2023-02-01T06:03:55;7.10;99.90
61912;DHT22;49973;52.084;5.412;2023-02-01T06:06:25;7.10;99.90
61912;DHT22;49973;52.084;5.412;2023-02-01T06:08:53;7.10;99.90
61912;DHT22;49973;52.084;5.412;2023-02-01T06:11:22;7.20;99.90
61912;DHT22;49973;52.084;5.412;2023-02-01T06:13:59;7.30;99.90
61912;DHT22;49973;52.084;5.412;2023-02-01T06:16:28;7.20;99.90
61912;DHT22;49973;52.084;5.412;2023-02-01T06:18:56;7.30;99.90
61912;DHT22;49973;52.084;5.412;2023-02-01T06:21:26;7.30;99.90
61912;DHT22;49973;52.084;5.412;2023-02-01T06:23:55;7.20;99.90
61912;DHT22;49973;52.084;5.412;2023-02-01T06:26:24;7.30;99.90
61912;DHT22;49973;52.084;5.412;2023-02-01T06:28:55;7.30;99.90
61912;DHT22;49973;52.084;5.412;2023-02-01T06:31:24;7.20;99.90
61912;DHT22;49973;52.084;5.412;2023-02-01T06:33:53;7.20;99.90
61912;DHT22;49973;52.084;5.412;2023-02-01T06:36:22;7.10;99.90
61912;DHT22;49973;52.084;5.412;2023-02-01T06:38:52;7.10;99.90
61912;DHT22;49973;52.084;5.412;2023-02-01T06:41:20;7.10;99.90
61912;DHT22;49973;52.084;5.412;2023-02-01T06:43:49;7.00;99.90
61912;DHT22;49973;52.084;5.412;2023-02-01T06:46:17;6.90;99.90
61912;DHT22;49973;52.084;5.412;2023-02-01T06:48:46;6.80;99.90
61912;DHT22;49973;52.084;5.412;2023-02-01T06:51:21;6.80;99.90
61912;DHT22;49973;52.084;5.412;2023-02-01T06:53:49;6.80;99.90
61912;DHT22;49973;52.084;5.412;2023-02-01T06:56:19;6.70;99.90
61912;DHT22;49973;52.084;5.412;2023-02-01T06:58:48;6.70;99.90
61912;DHT22;49973;52.084;5.412;2023-02-01T07:01:17;6.70;99.90
61912;DHT22;49973;52.084;5.412;2023-02-01T07:03:47;6.90;99.90
61912;DHT22;49973;52.084;5.412;2023-02-01T07:06:17;6.70;99.90
61912;DHT22;49973;52.084;5.412;2023-02-01T07:08:46;6.80;99.90
61912;DHT22;49973;52.084;5.412;2023-02-01T07:11:16;6.70;99.90
61912;DHT22;49973;52.084;5.412;2023-02-01T07:13:46;6.80;99.90
61912;DHT22;49973;52.084;5.412;2023-02-01T07:16:16;6.70;99.90
61912;DHT22;49973;52.084;5.412;2023-02-01T07:18:46;6.80;99.90
61912;DHT22;49973;52.084;5.412;2023-02-01T07:21:15;6.90;99.90
61912;DHT22;49973;52.084;5.412;2023-02-01T07:23:43;6.90;99.90
61912;DHT22;49973;52.084;5.412;2023-02-01T07:26:13;6.90;99.90
61912;DHT22;49973;52.084;5.412;2023-02-01T07:28:43;6.90;99.90
61912;DHT22;49973;52.084;5.412;2023-02-01T07:31:16;6.90;99.90
61912;DHT22;49973;52.084;5.412;2023-02-01T07:33:48;6.90;99.90
61912;DHT22;49973;52.084;5.412;2023-02-01T07:36:19;6.90;99.90
61912;DHT22;49973;52.084;5.412;2023-02-01T07:38:47;7.10;99.90
61912;DHT22;49973;52.084;5.412;2023-02-01T07:41:16;6.90;99.90
61912;DHT22;49973;52.084;5.412;2023-02-01T07:43:45;6.90;99.90
61912;DHT22;49973;52.084;5.412;2023-02-01T07:46:15;7.10;99.90
61912;DHT22;49973;52.084;5.412;2023-02-01T07:48:44;6.90;99.90
61912;DHT22;49973;52.084;5.412;2023-02-01T07:51:14;6.90;99.90
61912;DHT22;49973;52.084;5.412;2023-02-01T07:53:43;6.90;99.90
61912;DHT22;49973;52.084;5.412;2023-02-01T07:56:14;6.90;99.90
61912;DHT22;49973;52.084;5.412;2023-02-01T07:58:47;6.90;99.90
61912;DHT22;49973;52.084;5.412;2023-02-01T08:01:18;6.90;99.90
61912;DHT22;49973;52.084;5.412;2023-02-01T08:03:53;7.00;99.90
61912;DHT22;49973;52.084;5.412;2023-02-01T08:06:23;6.90;99.90
61912;DHT22;49973;52.084;5.412;2023-02-01T08:08:53;6.90;99.90
61912;DHT22;49973;52.084;5.412;2023-02-01T08:11:22;6.90;99.90
61912;DHT22;49973;52.084;5.412;2023-02-01T08:13:51;7.00;99.90
61912;DHT22;49973;52.084;5.412;2023-02-01T08:16:24;6.80;99.90
61912;DHT22;49973;52.084;5.412;2023-02-01T08:18:53;6.90;99.90
61912;DHT22;49973;52.084;5.412;2023-02-01T08:21:24;6.90;99.90
61912;DHT22;49973;52.084;5.412;2023-02-01T08:23:53;6.90;99.90
61912;DHT22;49973;52.084;5.412;2023-02-01T08:26:24;6.90;99.90
61912;DHT22;49973;52.084;5.412;2023-02-01T08:28:55;6.90;99.90
61912;DHT22;49973;52.084;5.412;2023-02-01T08:31:26;6.90;99.90
61912;DHT22;49973;52.084;5.412;2023-02-01T08:33:56;6.90;99.90
61912;DHT22;49973;52.084;5.412;2023-02-01T08:36:26;7.00;99.90
61912;DHT22;49973;52.084;5.412;2023-02-01T08:38:55;7.00;99.90
61912;DHT22;49973;52.084;5.412;2023-02-01T08:41:26;7.00;99.90
61912;DHT22;49973;52.084;5.412;2023-02-01T08:43:56;7.10;99.90
61912;DHT22;49973;52.084;5.412;2023-02-01T08:46:26;7.10;99.90
61912;DHT22;49973;52.084;5.412;2023-02-01T08:48:54;7.10;99.90
61912;DHT22;49973;52.084;5.412;2023-02-01T08:51:23;7.20;99.90
61912;DHT22;49973;52.084;5.412;2023-02-01T08:53:52;7.30;99.90
61912;DHT22;49973;52.084;5.412;2023-02-01T08:56:20;7.20;99.90
61912;DHT22;49973;52.084;5.412;2023-02-01T08:58:49;7.30;99.90
61912;DHT22;49973;52.084;5.412;2023-02-01T09:01:17;7.30;99.90
61912;DHT22;49973;52.084;5.412;2023-02-01T09:03:47;7.40;99.90
61912;DHT22;49973;52.084;5.412;2023-02-01T09:06:16;7.40;99.90
61912;DHT22;49973;52.084;5.412;2023-02-01T09:08:45;7.50;99.90
61912;DHT22;49973;52.084;5.412;2023-02-01T09:11:15;7.50;99.90
61912;DHT22;49973;52.084;5.412;2023-02-01T09:13:44;7.60;99.90
61912;DHT22;49973;52.084;5.412;2023-02-01T09:16:13;7.60;99.90
61912;DHT22;49973;52.084;5.412;2023-02-01T09:18:41;7.70;99.90
61912;DHT22;49973;52.084;5.412;2023-02-01T09:21:31;7.80;99.90
61912;DHT22;49973;52.084;5.412;2023-02-01T09:24:00;7.90;99.90
61912;DHT22;49973;52.084;5.412;2023-02-01T09:26:29;8.00;99.90
61912;DHT22;49973;52.084;5.412;2023-02-01T09:28:59;8.10;99.90
61912;DHT22;49973;52.084;5.412;2023-02-01T09:31:28;8.40;99.90
61912;DHT22;49973;52.084;5.412;2023-02-01T09:33:57;8.40;99.90
61912;DHT22;49973;52.084;5.412;2023-02-01T09:36:25;8.50;99.90
61912;DHT22;49973;52.084;5.412;2023-02-01T09:38:59;8.50;99.90
61912;DHT22;49973;52.084;5.412;2023-02-01T09:41:42;8.60;99.90
61912;DHT22;49973;52.084;5.412;2023-02-01T09:44:25;8.60;99.90
61912;DHT22;49973;52.084;5.412;2023-02-01T09:47:12;8.50;99.90
61912;DHT22;49973;52.084;5.412;2023-02-01T09:49:48;8.50;99.90
61912;DHT22;49973;52.084;5.412;2023-02-01T09:52:23;8.50;99.90
61912;DHT22;49973;52.084;5.412;2023-02-01T09:54:57;8.50;99.90
61912;DHT22;49973;52.084;5.412;2023-02-01T09:57:36;8.60;99.90
61912;DHT22;49973;52.084;5.412;2023-02-01T10:00:16;8.50;99.90
61912;DHT22;49973;52.084;5.412;2023-02-01T10:02:46;8.50;99.90
61912;DHT22;49973;52.084;5.412;2023-02-01T10:05:17;8.50;99.90
61912;DHT22;49973;52.084;5.412;2023-02-01T10:07:56;8.40;99.90
61912;DHT22;49973;52.084;5.412;2023-02-01T10:10:36;8.40;99.90
61912;DHT22;49973;52.084;5.412;2023-02-01T10:13:19;8.30;99.90
61912;DHT22;49973;52.084;5.412;2023-02-01T10:16:02;8.30;99.90
61912;DHT22;49973;52.084;5.412;2023-02-01T10:18:57;8.30;99.90
61912;DHT22;49973;52.084;5.412;2023-02-01T10:21:37;8.20;99.90
61912;DHT22;49973;52.084;5.412;2023-02-01T10:24:17;8.10;99.90
61912;DHT22;49973;52.084;5.412;2023-02-01T10:26:55;8.00;99.90
61912;DHT22;49973;52.084;5.412;2023-02-01T10:29:31;7.80;99.90
61912;DHT22;49973;52.084;5.412;2023-02-01T10:32:02;7.70;99.90
61912;DHT22;49973;52.084;5.412;2023-02-01T10:34:33;7.60;99.90
61912;DHT22;49973;52.084;5.412;2023-02-01T10:37:13;7.50;99.90
61912;DHT22;49973;52.084;5.412;2023-02-01T10:39:46;7.20;99.90
61912;DHT22;49973;52.084;5.412;2023-02-01T10:42:19;7.20;99.90
61912;DHT22;49973;52.084;5.412;2023-02-01T10:44:48;7.10;99.90
61912;DHT22;49973;52.084;5.412;2023-02-01T10:47:17;7.20;99.90
61912;DHT22;49973;52.084;5.412;2023-02-01T10:49:52;7.10;99.90
61912;DHT22;49973;52.084;5.412;2023-02-01T10:52:31;7.10;99.90
61912;DHT22;49973;52.084;5.412;2023-02-01T10:55:26;7.10;99.90
61912;DHT22;49973;52.084;5.412;2023-02-01T10:57:58;7.20;99.90
61912;DHT22;49973;52.084;5.412;2023-02-01T11:00:27;7.20;99.90
61912;DHT22;49973;52.084;5.412;2023-02-01T11:02:56;7.30;99.90
61912;DHT22;49973;52.084;5.412;2023-02-01T11:05:25;7.40;99.90
61912;DHT22;49973;52.084;5.412;2023-02-01T11:07:54;7.40;99.90
61912;DHT22;49973;52.084;5.412;2023-02-01T11:10:37;7.60;99.90
61912;DHT22;49973;52.084;5.412;2023-02-01T11:13:13;7.60;99.90
61912;DHT22;49973;52.084;5.412;2023-02-01T11:15:44;7.60;99.90
61912;DHT22;49973;52.084;5.412;2023-02-01T11:18:18;7.70;99.90
61912;DHT22;49973;52.084;5.412;2023-02-01T11:20:47;7.80;99.90
61912;DHT22;49973;52.084;5.412;2023-02-01T11:23:21;7.80;99.90
61912;DHT22;49973;52.084;5.412;2023-02-01T11:25:52;7.80;99.90
61912;DHT22;49973;52.084;5.412;2023-02-01T11:28:25;7.70;99.90
61912;DHT22;49973;52.084;5.412;2023-02-01T11:30:56;7.70;99.90
61912;DHT22;49973;52.084;5.412;2023-02-01T11:33:28;7.80;99.90
61912;DHT22;49973;52.084;5.412;2023-02-01T11:35:58;7.80;99.90
61912;DHT22;49973;52.084;5.412;2023-02-01T11:38:29;8.00;99.90
61912;DHT22;49973;52.084;5.412;2023-02-01T11:41:12;7.80;99.90
61912;DHT22;49973;52.084;5.412;2023-02-01T11:43:56;7.90;99.90
61912;DHT22;49973;52.084;5.412;2023-02-01T11:46:29;8.00;99.90
61912;DHT22;49973;52.084;5.412;2023-02-01T11:49:18;8.10;99.90
61912;DHT22;49973;52.084;5.412;2023-02-01T11:51:55;8.10;99.90
61912;DHT22;49973;52.084;5.412;2023-02-01T11:54:39;8.20;99.90
61912;DHT22;49973;52.084;5.412;2023-02-01T11:57:22;8.30;99.90
61912;DHT22;49973;52.084;5.412;2023-02-01T12:00:02;8.40;99.90
61912;DHT22;49973;52.084;5.412;2023-02-01T12:03:02;8.40;99.90
61912;DHT22;49973;52.084;5.412;2023-02-01T12:05:46;8.60;99.90
61912;DHT22;49973;52.084;5.412;2023-02-01T12:08:26;8.70;99.90
61912;DHT22;49973;52.084;5.412;2023-02-01T12:11:11;8.70;99.90
61912;DHT22;49973;52.084;5.412;2023-02-01T12:13:51;8.80;99.90
61912;DHT22;49973;52.084;5.412;2023-02-01T12:16:29;8.80;99.90
61912;DHT22;49973;52.084;5.412;2023-02-01T12:19:16;8.90;99.90
61912;DHT22;49973;52.084;5.412;2023-02-01T12:22:00;9.00;99.90
61912;DHT22;49973;52.084;5.412;2023-02-01T12:24:49;9.00;99.90
61912;DHT22;49973;52.084;5.412;2023-02-01T12:27:49;9.10;99.90
61912;DHT22;49973;52.084;5.412;2023-02-01T12:30:41;9.10;99.90
61912;DHT22;49973;52.084;5.412;2023-02-01T12:33:21;9.10;99.90
61912;DHT22;49973;52.084;5.412;2023-02-01T12:36:03;9.10;99.90
61912;DHT22;49973;52.084;5.412;2023-02-01T12:38:52;9.10;99.90
61912;DHT22;49973;52.084;5.412;2023-02-01T12:41:36;9.10;99.90
61912;DHT22;49973;52.084;5.412;2023-02-01T12:44:17;9.00;99.90
61912;DHT22;49973;52.084;5.412;2023-02-01T12:46:52;9.00;99.90
61912;DHT22;49973;52.084;5.412;2023-02-01T12:49:36;9.00;99.90
61912;DHT22;49973;52.084;5.412;2023-02-01T12:52:09;9.00;99.90
61912;DHT22;49973;52.084;5.412;2023-02-01T12:54:45;8.90;99.90
61912;DHT22;49973;52.084;5.412;2023-02-01T12:57:21;8.90;99.90
61912;DHT22;49973;52.084;5.412;2023-02-01T12:59:56;8.90;99.90
61912;DHT22;49973;52.084;5.412;2023-02-01T13:02:30;8.90;99.90
61912;DHT22;49973;52.084;5.412;2023-02-01T13:05:14;8.90;99.90
61912;DHT22;49973;52.084;5.412;2023-02-01T13:07:49;9.00;99.90
61912;DHT22;49973;52.084;5.412;2023-02-01T13:10:23;9.00;99.90
61912;DHT22;49973;52.084;5.412;2023-02-01T13:12:56;9.10;99.90
61912;DHT22;49973;52.084;5.412;2023-02-01T13:15:29;9.10;99.90
61912;DHT22;49973;52.084;5.412;2023-02-01T13:18:02;9.10;99.90
61912;DHT22;49973;52.084;5.412;2023-02-01T13:20:36;9.20;99.90
61912;DHT22;49973;52.084;5.412;2023-02-01T13:23:11;9.00;99.90
61912;DHT22;49973;52.084;5.412;2023-02-01T13:25:47;9.00;99.90
61912;DHT22;49973;52.084;5.412;2023-02-01T13:28:18;9.00;99.90
61912;DHT22;49973;52.084;5.412;2023-02-01T13:31:26;9.10;99.90
61912;DHT22;49973;52.084;5.412;2023-02-01T13:37:05;9.00;99.90
61912;DHT22;49973;52.084;5.412;2023-02-01T13:40:17;8.90;99.90
61912;DHT22;49973;52.084;5.412;2023-02-01T13:42:49;8.80;99.90
61912;DHT22;49973;52.084;5.412;2023-02-01T13:45:20;8.80;99.90
61912;DHT22;49973;52.084;5.412;2023-02-01T13:47:53;8.90;99.90
61912;DHT22;49973;52.084;5.412;2023-02-01T13:50:26;8.80;99.90
61912;DHT22;49973;52.084;5.412;2023-02-01T13:52:59;8.80;99.90
61912;DHT22;49973;52.084;5.412;2023-02-01T13:55:33;8.80;99.90
61912;DHT22;49973;52.084;5.412;2023-02-01T13:58:20;8.80;99.90
61912;DHT22;49973;52.084;5.412;2023-02-01T14:00:50;8.90;99.90
61912;DHT22;49973;52.084;5.412;2023-02-01T14:03:20;8.90;99.90
61912;DHT22;49973;52.084;5.412;2023-02-01T14:06:00;9.00;99.90
61912;DHT22;49973;52.084;5.412;2023-02-01T14:08:43;9.00;99.90
61912;DHT22;49973;52.084;5.412;2023-02-01T14:11:32;9.00;99.90
61912;DHT22;49973;52.084;5.412;2023-02-01T14:17:34;9.00;99.90
61912;DHT22;49973;52.084;5.412;2023-02-01T14:23:19;9.00;99.90
61912;DHT22;49973;52.084;5.412;2023-02-01T14:26:04;9.00;99.90
61912;DHT22;49973;52.084;5.412;2023-02-01T14:28:38;9.00;99.90
61912;DHT22;49973;52.084;5.412;2023-02-01T14:31:33;9.00;99.90
61912;DHT22;49973;52.084;5.412;2023-02-01T14:34:10;9.00;99.90
61912;DHT22;49973;52.084;5.412;2023-02-01T14:36:42;9.00;99.90
61912;DHT22;49973;52.084;5.412;2023-02-01T14:39:30;9.00;99.90
61912;DHT22;49973;52.084;5.412;2023-02-01T14:42:05;9.00;99.90
61912;DHT22;49973;52.084;5.412;2023-02-01T14:44:36;8.90;99.90
61912;DHT22;49973;52.084;5.412;2023-02-01T14:47:34;9.00;99.90
61912;DHT22;49973;52.084;5.412;2023-02-01T14:50:12;8.90;99.90
61912;DHT22;49973;52.084;5.412;2023-02-01T14:52:44;8.90;99.90
61912;DHT22;49973;52.084;5.412;2023-02-01T14:55:16;8.90;99.90
61912;DHT22;49973;52.084;5.412;2023-02-01T14:57:50;8.90;99.90
61912;DHT22;49973;52.084;5.412;2023-02-01T15:00:24;9.00;99.90
61912;DHT22;49973;52.084;5.412;2023-02-01T15:02:54;8.90;99.90
61912;DHT22;49973;52.084;5.412;2023-02-01T15:05:27;8.90;99.90
61912;DHT22;49973;52.084;5.412;2023-02-01T15:08:00;8.80;99.90
61912;DHT22;49973;52.084;5.412;2023-02-01T15:10:32;8.80;99.90
61912;DHT22;49973;52.084;5.412;2023-02-01T15:13:03;8.70;99.90
61912;DHT22;49973;52.084;5.412;2023-02-01T15:15:32;8.70;99.90
61912;DHT22;49973;52.084;5.412;2023-02-01T15:18:03;8.60;99.90
61912;DHT22;49973;52.084;5.412;2023-02-01T15:20:32;8.60;99.90
61912;DHT22;49973;52.084;5.412;2023-02-01T15:23:03;8.60;99.90
61912;DHT22;49973;52.084;5.412;2023-02-01T15:25:32;8.70;99.90
61912;DHT22;49973;52.084;5.412;2023-02-01T15:28:04;8.70;99.90
61912;DHT22;49973;52.084;5.412;2023-02-01T15:30:34;8.70;99.90
61912;DHT22;49973;52.084;5.412;2023-02-01T15:33:08;8.70;99.90
61912;DHT22;49973;52.084;5.412;2023-02-01T15:35:39;8.80;99.90
61912;DHT22;49973;52.084;5.412;2023-02-01T15:38:38;8.80;99.90
61912;DHT22;49973;52.084;5.412;2023-02-01T15:41:10;8.80;99.90
61912;DHT22;49973;52.084;5.412;2023-02-01T15:43:44;8.80;99.90
61912;DHT22;49973;52.084;5.412;2023-02-01T15:46:16;8.90;99.90
61912;DHT22;49973;52.084;5.412;2023-02-01T15:48:48;8.90;99.90
61912;DHT22;49973;52.084;5.412;2023-02-01T15:51:19;8.90;99.90
61912;DHT22;49973;52.084;5.412;2023-02-01T15:53:51;8.90;99.90
61912;DHT22;49973;52.084;5.412;2023-02-01T15:56:23;8.90;99.90
61912;DHT22;49973;52.084;5.412;2023-02-01T15:58:56;8.90;99.90
61912;DHT22;49973;52.084;5.412;2023-02-01T16:01:25;8.90;99.90
61912;DHT22;49973;52.084;5.412;2023-02-01T16:04:14;8.90;99.90
61912;DHT22;49973;52.084;5.412;2023-02-01T16:06:49;8.90;99.90
61912;DHT22;49973;52.084;5.412;2023-02-01T16:09:19;8.90;99.90
61912;DHT22;49973;52.084;5.412;2023-02-01T16:11:53;9.00;99.90
61912;DHT22;49973;52.084;5.412;2023-02-01T16:14:24;8.90;99.90
61912;DHT22;49973;52.084;5.412;2023-02-01T16:16:55;8.90;99.90
61912;DHT22;49973;52.084;5.412;2023-02-01T16:19:24;8.90;99.90
61912;DHT22;49973;52.084;5.412;2023-02-01T16:21:55;9.00;99.90
61912;DHT22;49973;52.084;5.412;2023-02-01T16:24:25;9.00;99.90
61912;DHT22;49973;52.084;5.412;2023-02-01T16:26:53;8.90;99.90
61912;DHT22;49973;52.084;5.412;2023-02-01T16:29:23;9.00;99.90
61912;DHT22;49973;52.084;5.412;2023-02-01T16:31:52;8.90;99.90
61912;DHT22;49973;52.084;5.412;2023-02-01T16:34:21;8.90;99.90
61912;DHT22;49973;52.084;5.412;2023-02-01T16:36:49;8.90;99.90
61912;DHT22;49973;52.084;5.412;2023-02-01T16:39:19;8.90;99.90
61912;DHT22;49973;52.084;5.412;2023-02-01T16:41:48;9.00;99.90
61912;DHT22;49973;52.084;5.412;2023-02-01T16:44:17;9.00;99.90